PWSweather.com
Personal Weather Stations
Station Observations
WD4JKH
Forsyth, GA 31029

Forsyth, GA 31029

Lat: 33.033225, Lon: -83.927995

Elevation: 709

Station Type: Davis Vantage VUE

High Low Average
Temperature 74.9°F23.8°C 64.4°F18.0°C 68.0°F20.0°C
Dew Point 70.1°F21.2°C 63.3°F17.4°C 66.1°F18.9°C
Winds 9.2 mph 14.8 kmh Calm Calm 2.0 mph SW3.2 kmh SW
Wind Gusts 20.0 mph32.2 kmh -- 7.0 mph11.3 kmh
Humidity 98% 78% 94%
Pressure 29.90 in1012.5 mb 29.74 in1007.1 mb -
Precipitation 1.20 in30.5 mm - -
Hour Temp Dew Point Humidity Winds Wind Gusts Pressure Precip Precip Rate Daily Precip Total
12:04 AM 67.7°F19.8°C 67.1°F19.5°C 98% 2.2 mph SW3.5 kmh SW 4.0 mph6.4 kmh 29.87 in1011.5 mb 0.00 in0.0 mm 0.00 in0.0 mm 0.00 in0.0 mm
12:09 AM 67.7°F19.8°C 67.1°F19.5°C 98% 1.7 mph SW2.7 kmh SW 6.0 mph9.7 kmh 29.87 in1011.5 mb 0.00 in0.0 mm 0.00 in0.0 mm 0.00 in0.0 mm
12:14 AM 67.7°F19.8°C 67.1°F19.5°C 98% 1.9 mph WSW3.1 kmh WSW 6.0 mph9.7 kmh 29.88 in1011.9 mb 0.00 in0.0 mm 0.00 in0.0 mm 0.00 in0.0 mm
12:19 AM 67.7°F19.8°C 67.1°F19.5°C 98% 1.4 mph SSW2.3 kmh SSW 6.0 mph9.7 kmh 29.87 in1011.5 mb 0.00 in0.0 mm 0.00 in0.0 mm 0.00 in0.0 mm
12:25 AM 67.6°F19.8°C 67.0°F19.4°C 98% 1.7 mph SW2.7 kmh SW 6.0 mph9.7 kmh 29.87 in1011.5 mb 0.00 in0.0 mm 0.00 in0.0 mm 0.00 in0.0 mm
12:30 AM 67.6°F19.8°C 67.0°F19.4°C 98% Calm Calm 5.0 mph8.0 kmh 29.87 in1011.5 mb 0.00 in0.0 mm 0.00 in0.0 mm 0.00 in0.0 mm
12:35 AM 67.6°F19.8°C 67.0°F19.4°C 98% 3.3 mph SW5.3 kmh SW 6.0 mph9.7 kmh 29.88 in1011.9 mb 0.00 in0.0 mm 0.00 in0.0 mm 0.00 in0.0 mm
12:40 AM 67.6°F19.8°C 67.0°F19.4°C 98% 1.7 mph SW2.7 kmh SW 6.0 mph9.7 kmh 29.88 in1011.9 mb 0.00 in0.0 mm 0.00 in0.0 mm 0.00 in0.0 mm
12:45 AM 67.6°F19.8°C 67.0°F19.4°C 98% 1.7 mph SW2.7 kmh SW 6.0 mph9.7 kmh 29.88 in1011.9 mb 0.00 in0.0 mm 0.00 in0.0 mm 0.00 in0.0 mm
12:51 AM 67.6°F19.8°C 67.0°F19.4°C 98% Calm Calm 6.0 mph9.7 kmh 29.88 in1011.9 mb 0.00 in0.0 mm 0.00 in0.0 mm 0.00 in0.0 mm
12:56 AM 67.6°F19.8°C 67.0°F19.4°C 98% 1.6 mph SW2.6 kmh SW 6.0 mph9.7 kmh 29.88 in1011.9 mb 0.00 in0.0 mm 0.00 in0.0 mm 0.00 in0.0 mm
01:01 AM 67.6°F19.8°C 67.0°F19.4°C 98% 2.1 mph SW3.4 kmh SW 6.0 mph9.7 kmh 29.89 in1012.2 mb 0.00 in0.0 mm 0.00 in0.0 mm 0.00 in0.0 mm
01:06 AM 67.6°F19.8°C 67.0°F19.4°C 98% 1.8 mph W2.9 kmh W 4.0 mph6.4 kmh 29.89 in1012.2 mb 0.00 in0.0 mm 0.00 in0.0 mm 0.00 in0.0 mm
01:11 AM 67.7°F19.8°C 67.1°F19.5°C 98% 1.7 mph WNW2.7 kmh WNW 4.0 mph6.4 kmh 29.90 in1012.5 mb 0.00 in0.0 mm 0.00 in0.0 mm 0.00 in0.0 mm
01:17 AM 67.8°F19.9°C 67.2°F19.6°C 98% 1.4 mph WSW2.3 kmh WSW 4.0 mph6.4 kmh 29.89 in1012.2 mb 0.00 in0.0 mm 0.00 in0.0 mm 0.00 in0.0 mm
01:22 AM 67.8°F19.9°C 67.2°F19.6°C 98% 1.0 mph WSW1.6 kmh WSW 4.0 mph6.4 kmh 29.89 in1012.2 mb 0.00 in0.0 mm 0.00 in0.0 mm 0.00 in0.0 mm
01:27 AM 67.8°F19.9°C 67.2°F19.6°C 98% 1.4 mph WSW2.3 kmh WSW 4.0 mph6.4 kmh 29.89 in1012.2 mb 0.00 in0.0 mm 0.00 in0.0 mm 0.00 in0.0 mm
01:32 AM 67.9°F19.9°C 67.3°F19.6°C 98% 2.2 mph WNW3.5 kmh WNW 4.0 mph6.4 kmh 29.89 in1012.2 mb 0.00 in0.0 mm 0.00 in0.0 mm 0.00 in0.0 mm
01:37 AM 68.0°F20.0°C 67.4°F19.7°C 98% 2.7 mph W4.3 kmh W 6.0 mph9.7 kmh 29.90 in1012.5 mb 0.00 in0.0 mm 0.00 in0.0 mm 0.00 in0.0 mm
01:43 AM 67.9°F19.9°C 67.3°F19.6°C 98% 3.5 mph W5.6 kmh W 7.0 mph11.3 kmh 29.90 in1012.5 mb 0.00 in0.0 mm 0.00 in0.0 mm 0.00 in0.0 mm
01:48 AM 67.6°F19.8°C 67.0°F19.4°C 98% 9.2 mph WNW14.8 kmh WNW 20.0 mph32.2 kmh 29.90 in1012.5 mb 0.01 in0.3 mm 0.12 in3.0 mm 0.01 in0.3 mm
01:53 AM 66.9°F19.4°C 66.0°F18.9°C 97% 5.7 mph WNW9.2 kmh WNW 20.0 mph32.2 kmh 29.88 in1011.9 mb 0.01 in0.3 mm 0.00 in0.0 mm 0.02 in0.5 mm
01:58 AM 66.4°F19.1°C 65.5°F18.6°C 97% 3.7 mph W6.0 kmh W 20.0 mph32.2 kmh 29.89 in1012.2 mb 0.03 in0.8 mm 0.24 in6.1 mm 0.03 in0.8 mm
02:03 AM 66.0°F18.9°C 64.8°F18.2°C 96% 2.8 mph WSW4.5 kmh WSW 20.0 mph32.2 kmh 29.89 in1012.2 mb 0.07 in1.8 mm 0.04 in1.0 mm 0.07 in1.8 mm
02:09 AM 65.8°F18.8°C 64.6°F18.1°C 96% 2.5 mph WSW4.0 kmh WSW 15.0 mph24.1 kmh 29.89 in1012.2 mb 0.14 in3.6 mm 0.70 in17.8 mm 0.15 in3.8 mm
02:14 AM 65.6°F18.7°C 64.7°F18.2°C 97% 1.9 mph S3.1 kmh S 13.0 mph20.9 kmh 29.89 in1012.2 mb 0.17 in4.3 mm 0.36 in9.1 mm 0.17 in4.3 mm
02:19 AM 65.4°F18.6°C 64.5°F18.1°C 97% 1.6 mph SSW2.6 kmh SSW 10.0 mph16.1 kmh 29.89 in1012.2 mb 0.17 in4.3 mm 0.00 in0.0 mm 0.17 in4.3 mm
02:24 AM 65.3°F18.5°C 64.4°F18.0°C 97% 1.3 mph SW2.1 kmh SW 8.0 mph12.9 kmh 29.88 in1011.9 mb 0.17 in4.3 mm 0.00 in0.0 mm 0.17 in4.3 mm
02:29 AM 65.2°F18.4°C 64.3°F17.9°C 97% 2.0 mph SW3.2 kmh SW 6.0 mph9.7 kmh 29.88 in1011.9 mb 0.17 in4.3 mm 0.00 in0.0 mm 0.17 in4.3 mm
02:35 AM 65.2°F18.4°C 64.3°F17.9°C 97% 1.6 mph WSW2.6 kmh WSW 5.0 mph8.0 kmh 29.87 in1011.5 mb 0.17 in4.3 mm 0.00 in0.0 mm 0.17 in4.3 mm
02:40 AM 65.2°F18.4°C 64.3°F17.9°C 97% 1.0 mph W1.6 kmh W 5.0 mph8.0 kmh 29.87 in1011.5 mb 0.17 in4.3 mm 0.00 in0.0 mm 0.17 in4.3 mm
02:45 AM 65.2°F18.4°C 64.3°F17.9°C 97% Calm Calm 5.0 mph8.0 kmh 29.87 in1011.5 mb 0.17 in4.3 mm 0.00 in0.0 mm 0.17 in4.3 mm
02:50 AM 65.2°F18.4°C 64.3°F17.9°C 97% Calm Calm 2.0 mph3.2 kmh 29.86 in1011.2 mb 0.16 in4.1 mm 0.00 in0.0 mm 0.17 in4.3 mm
02:55 AM 65.3°F18.5°C 64.4°F18.0°C 97% Calm Calm 1.0 mph1.6 kmh 29.86 in1011.2 mb 0.14 in3.6 mm 0.00 in0.0 mm 0.17 in4.3 mm
03:01 AM 65.3°F18.5°C 64.4°F18.0°C 97% Calm Calm -- 29.86 in1011.2 mb 0.12 in3.0 mm 0.00 in0.0 mm 0.17 in4.3 mm
03:06 AM 65.2°F18.4°C 64.3°F17.9°C 97% 1.0 mph SW1.6 kmh SW 1.0 mph1.6 kmh 29.86 in1011.2 mb 0.06 in1.5 mm 0.00 in0.0 mm 0.17 in4.3 mm
03:11 AM 65.2°F18.4°C 64.3°F17.9°C 97% 1.3 mph S2.1 kmh S 3.0 mph4.8 kmh 29.86 in1011.2 mb 0.02 in0.5 mm 0.00 in0.0 mm 0.17 in4.3 mm
03:16 AM 65.2°F18.4°C 64.3°F17.9°C 97% 1.2 mph WSW1.9 kmh WSW 3.0 mph4.8 kmh 29.86 in1011.2 mb 0.00 in0.0 mm 0.00 in0.0 mm 0.17 in4.3 mm
03:22 AM 65.1°F18.4°C 64.2°F17.9°C 97% Calm Calm 3.0 mph4.8 kmh 29.86 in1011.2 mb 0.00 in0.0 mm 0.00 in0.0 mm 0.17 in4.3 mm
03:27 AM 65.1°F18.4°C 64.2°F17.9°C 97% 1.2 mph SW1.9 kmh SW 3.0 mph4.8 kmh 29.86 in1011.2 mb 0.02 in0.5 mm 0.24 in6.1 mm 0.19 in4.8 mm
03:32 AM 65.1°F18.4°C 64.2°F17.9°C 97% 1.4 mph SE2.3 kmh SE 3.0 mph4.8 kmh 29.85 in1010.8 mb 0.04 in1.0 mm 0.24 in6.1 mm 0.21 in5.3 mm
03:37 AM 65.1°F18.4°C 64.5°F18.1°C 98% 1.5 mph SE2.4 kmh SE 4.0 mph6.4 kmh 29.85 in1010.8 mb 0.04 in1.0 mm 0.00 in0.0 mm 0.21 in5.3 mm
03:42 AM 65.1°F18.4°C 64.5°F18.1°C 98% 1.1 mph SE1.8 kmh SE 6.0 mph9.7 kmh 29.84 in1010.5 mb 0.05 in1.3 mm 0.12 in3.0 mm 0.22 in5.6 mm
03:48 AM 65.1°F18.4°C 64.5°F18.1°C 98% 2.0 mph SSE3.2 kmh SSE 6.0 mph9.7 kmh 29.84 in1010.5 mb 0.06 in1.5 mm 0.10 in2.5 mm 0.23 in5.8 mm
03:53 AM 65.1°F18.4°C 64.5°F18.1°C 98% 2.7 mph ESE4.3 kmh ESE 6.0 mph9.7 kmh 29.82 in1009.8 mb 0.06 in1.5 mm 0.00 in0.0 mm 0.23 in5.8 mm
03:58 AM 65.1°F18.4°C 64.5°F18.1°C 98% 3.2 mph SE5.1 kmh SE 6.0 mph9.7 kmh 29.82 in1009.8 mb 0.06 in1.5 mm 0.00 in0.0 mm 0.23 in5.8 mm
04:03 AM 65.2°F18.4°C 64.6°F18.1°C 98% 3.1 mph SSE5.0 kmh SSE 7.0 mph11.3 kmh 29.82 in1009.8 mb 0.06 in1.5 mm 0.00 in0.0 mm 0.23 in5.8 mm
04:07 AM 65.2°F18.4°C 64.6°F18.1°C 98% 2.3 mph SE3.7 kmh SE 7.0 mph11.3 kmh 29.82 in1009.8 mb 0.06 in1.5 mm 0.00 in0.0 mm 0.23 in5.8 mm
04:13 AM 65.2°F18.4°C 64.6°F18.1°C 98% 1.0 mph SW1.6 kmh SW 7.0 mph11.3 kmh 29.83 in1010.2 mb 0.06 in1.5 mm 0.00 in0.0 mm 0.23 in5.8 mm
04:18 AM 65.2°F18.4°C 64.6°F18.1°C 98% 1.8 mph SE2.9 kmh SE 7.0 mph11.3 kmh 29.82 in1009.8 mb 0.06 in1.5 mm 0.00 in0.0 mm 0.23 in5.8 mm
04:23 AM 65.2°F18.4°C 64.6°F18.1°C 98% 3.1 mph SE5.0 kmh SE 8.0 mph12.9 kmh 29.80 in1009.1 mb 0.05 in1.3 mm 0.00 in0.0 mm 0.23 in5.8 mm
04:28 AM 65.3°F18.5°C 64.7°F18.2°C 98% 1.6 mph S2.6 kmh S 8.0 mph12.9 kmh 29.82 in1009.8 mb 0.05 in1.3 mm 0.00 in0.0 mm 0.24 in6.1 mm
04:33 AM 65.4°F18.6°C 64.8°F18.2°C 98% 2.4 mph S3.9 kmh S 8.0 mph12.9 kmh 29.82 in1009.8 mb 0.03 in0.8 mm 0.00 in0.0 mm 0.24 in6.1 mm
04:39 AM 65.4°F18.6°C 64.8°F18.2°C 98% 1.5 mph SSE2.4 kmh SSE 8.0 mph12.9 kmh 29.82 in1009.8 mb 0.03 in0.8 mm 0.00 in0.0 mm 0.24 in6.1 mm
04:44 AM 65.4°F18.6°C 64.8°F18.2°C 98% 2.0 mph SE3.2 kmh SE 8.0 mph12.9 kmh 29.81 in1009.5 mb 0.02 in0.5 mm 0.00 in0.0 mm 0.24 in6.1 mm
04:49 AM 65.4°F18.6°C 64.8°F18.2°C 98% 2.0 mph SSE3.2 kmh SSE 8.0 mph12.9 kmh 29.82 in1009.8 mb 0.01 in0.3 mm 0.00 in0.0 mm 0.24 in6.1 mm
04:54 AM 65.4°F18.6°C 64.8°F18.2°C 98% 1.1 mph S1.8 kmh S 8.0 mph12.9 kmh 29.82 in1009.8 mb 0.01 in0.3 mm 0.00 in0.0 mm 0.24 in6.1 mm
04:59 AM 65.4°F18.6°C 64.8°F18.2°C 98% 1.3 mph S2.1 kmh S 8.0 mph12.9 kmh 29.82 in1009.8 mb 0.01 in0.3 mm 0.00 in0.0 mm 0.24 in6.1 mm
05:05 AM 65.4°F18.6°C 64.8°F18.2°C 98% Calm Calm 5.0 mph8.0 kmh 29.82 in1009.8 mb 0.01 in0.3 mm 0.00 in0.0 mm 0.24 in6.1 mm
05:10 AM 65.3°F18.5°C 64.7°F18.2°C 98% 1.0 mph SSW1.6 kmh SSW 5.0 mph8.0 kmh 29.81 in1009.5 mb 0.01 in0.3 mm 0.00 in0.0 mm 0.24 in6.1 mm
05:15 AM 65.3°F18.5°C 64.7°F18.2°C 98% 1.8 mph SSE2.9 kmh SSE 5.0 mph8.0 kmh 29.81 in1009.5 mb 0.01 in0.3 mm 0.00 in0.0 mm 0.24 in6.1 mm
05:20 AM 65.3°F18.5°C 64.7°F18.2°C 98% 1.2 mph SE1.9 kmh SE 5.0 mph8.0 kmh 29.81 in1009.5 mb 0.01 in0.3 mm 0.00 in0.0 mm 0.24 in6.1 mm
05:25 AM 65.3°F18.5°C 64.7°F18.2°C 98% 1.0 mph SE1.6 kmh SE 5.0 mph8.0 kmh 29.80 in1009.1 mb 0.00 in0.0 mm 0.00 in0.0 mm 0.24 in6.1 mm
05:31 AM 65.3°F18.5°C 64.7°F18.2°C 98% 1.5 mph SW2.4 kmh SW 5.0 mph8.0 kmh 29.80 in1009.1 mb 0.00 in0.0 mm 0.00 in0.0 mm 0.24 in6.1 mm
05:36 AM 65.3°F18.5°C 64.7°F18.2°C 98% Calm Calm 4.0 mph6.4 kmh 29.80 in1009.1 mb 0.00 in0.0 mm 0.00 in0.0 mm 0.24 in6.1 mm
05:41 AM 65.2°F18.4°C 64.6°F18.1°C 98% 1.8 mph SE2.9 kmh SE 3.0 mph4.8 kmh 29.80 in1009.1 mb 0.00 in0.0 mm 0.00 in0.0 mm 0.24 in6.1 mm
05:46 AM 65.2°F18.4°C 64.6°F18.1°C 98% 1.0 mph SE1.6 kmh SE 3.0 mph4.8 kmh 29.80 in1009.1 mb 0.00 in0.0 mm 0.00 in0.0 mm 0.24 in6.1 mm
05:51 AM 65.1°F18.4°C 64.5°F18.1°C 98% Calm Calm 3.0 mph4.8 kmh 29.80 in1009.1 mb 0.00 in0.0 mm 0.00 in0.0 mm 0.24 in6.1 mm
05:57 AM 65.1°F18.4°C 64.5°F18.1°C 98% 1.5 mph SW2.4 kmh SW 3.0 mph4.8 kmh 29.80 in1009.1 mb 0.00 in0.0 mm 0.00 in0.0 mm 0.24 in6.1 mm
06:02 AM 65.1°F18.4°C 64.5°F18.1°C 98% 1.4 mph S2.3 kmh S 4.0 mph6.4 kmh 29.80 in1009.1 mb 0.00 in0.0 mm 0.00 in0.0 mm 0.24 in6.1 mm
06:07 AM 65.1°F18.4°C 64.5°F18.1°C 98% 1.2 mph SW1.9 kmh SW 4.0 mph6.4 kmh 29.80 in1009.1 mb 0.00 in0.0 mm 0.00 in0.0 mm 0.24 in6.1 mm
06:12 AM 65.1°F18.4°C 64.5°F18.1°C 98% 1.0 mph SW1.6 kmh SW 4.0 mph6.4 kmh 29.80 in1009.1 mb 0.00 in0.0 mm 0.00 in0.0 mm 0.24 in6.1 mm
06:17 AM 65.1°F18.4°C 64.5°F18.1°C 98% 1.0 mph S1.6 kmh S 2.0 mph3.2 kmh 29.80 in1009.1 mb 0.00 in0.0 mm 0.00 in0.0 mm 0.24 in6.1 mm
06:23 AM 65.1°F18.4°C 64.5°F18.1°C 98% 1.3 mph SW2.1 kmh SW 2.0 mph3.2 kmh 29.80 in1009.1 mb 0.00 in0.0 mm 0.00 in0.0 mm 0.24 in6.1 mm
06:28 AM 65.1°F18.4°C 64.5°F18.1°C 98% 1.0 mph WSW1.6 kmh WSW 2.0 mph3.2 kmh 29.80 in1009.1 mb 0.00 in0.0 mm 0.00 in0.0 mm 0.24 in6.1 mm
06:33 AM 65.1°F18.4°C 64.5°F18.1°C 98% 2.0 mph SW3.2 kmh SW 4.0 mph6.4 kmh 29.80 in1009.1 mb 0.00 in0.0 mm 0.00 in0.0 mm 0.24 in6.1 mm
06:38 AM 65.1°F18.4°C 64.5°F18.1°C 98% 2.1 mph SSW3.4 kmh SSW 4.0 mph6.4 kmh 29.80 in1009.1 mb 0.00 in0.0 mm 0.00 in0.0 mm 0.24 in6.1 mm
06:43 AM 65.1°F18.4°C 64.5°F18.1°C 98% 1.3 mph SE2.1 kmh SE 4.0 mph6.4 kmh 29.80 in1009.1 mb 0.00 in0.0 mm 0.00 in0.0 mm 0.24 in6.1 mm
06:49 AM 65.1°F18.4°C 64.5°F18.1°C 98% 1.0 mph SW1.6 kmh SW 4.0 mph6.4 kmh 29.80 in1009.1 mb 0.00 in0.0 mm 0.00 in0.0 mm 0.24 in6.1 mm
06:54 AM 65.1°F18.4°C 64.5°F18.1°C 98% 2.3 mph S3.7 kmh S 5.0 mph8.0 kmh 29.80 in1009.1 mb 0.00 in0.0 mm 0.00 in0.0 mm 0.24 in6.1 mm
06:59 AM 65.1°F18.4°C 64.5°F18.1°C 98% 1.8 mph SW2.9 kmh SW 5.0 mph8.0 kmh 29.81 in1009.5 mb 0.00 in0.0 mm 0.00 in0.0 mm 0.24 in6.1 mm
07:04 AM 65.1°F18.4°C 64.5°F18.1°C 98% 2.3 mph SSW3.7 kmh SSW 6.0 mph9.7 kmh 29.81 in1009.5 mb 0.00 in0.0 mm 0.00 in0.0 mm 0.24 in6.1 mm
07:09 AM 65.0°F18.3°C 64.4°F18.0°C 98% 1.9 mph SSW3.1 kmh SSW 6.0 mph9.7 kmh 29.81 in1009.5 mb 0.00 in0.0 mm 0.00 in0.0 mm 0.24 in6.1 mm
07:15 AM 65.0°F18.3°C 64.4°F18.0°C 98% 2.2 mph S3.5 kmh S 6.0 mph9.7 kmh 29.81 in1009.5 mb 0.00 in0.0 mm 0.00 in0.0 mm 0.24 in6.1 mm
07:20 AM 65.1°F18.4°C 64.5°F18.1°C 98% 2.5 mph SW4.0 kmh SW 6.0 mph9.7 kmh 29.81 in1009.5 mb 0.00 in0.0 mm 0.00 in0.0 mm 0.24 in6.1 mm
07:25 AM 65.1°F18.4°C 64.5°F18.1°C 98% 1.0 mph WSW1.6 kmh WSW 6.0 mph9.7 kmh 29.82 in1009.8 mb 0.00 in0.0 mm 0.00 in0.0 mm 0.24 in6.1 mm
07:30 AM 65.2°F18.4°C 64.6°F18.1°C 98% 2.2 mph W3.5 kmh W 6.0 mph9.7 kmh 29.84 in1010.5 mb 0.00 in0.0 mm 0.00 in0.0 mm 0.24 in6.1 mm
07:35 AM 65.3°F18.5°C 64.7°F18.2°C 98% 3.3 mph WNW5.3 kmh WNW 7.0 mph11.3 kmh 29.85 in1010.8 mb 0.00 in0.0 mm 0.00 in0.0 mm 0.24 in6.1 mm
07:41 AM 65.4°F18.6°C 64.8°F18.2°C 98% 3.7 mph WNW6.0 kmh WNW 11.0 mph17.7 kmh 29.86 in1011.2 mb 0.00 in0.0 mm 0.00 in0.0 mm 0.24 in6.1 mm
07:46 AM 65.4°F18.6°C 64.8°F18.2°C 98% 3.3 mph WNW5.3 kmh WNW 11.0 mph17.7 kmh 29.87 in1011.5 mb 0.00 in0.0 mm 0.00 in0.0 mm 0.24 in6.1 mm
07:51 AM 65.3°F18.5°C 64.7°F18.2°C 98% 3.6 mph WNW5.8 kmh WNW 11.0 mph17.7 kmh 29.87 in1011.5 mb 0.00 in0.0 mm 0.00 in0.0 mm 0.24 in6.1 mm
07:56 AM 65.4°F18.6°C 64.8°F18.2°C 98% 1.4 mph WNW2.3 kmh WNW 10.0 mph16.1 kmh 29.87 in1011.5 mb 0.00 in0.0 mm 0.00 in0.0 mm 0.24 in6.1 mm
08:01 AM 65.4°F18.6°C 64.8°F18.2°C 98% 2.7 mph W4.3 kmh W 10.0 mph16.1 kmh 29.88 in1011.9 mb 0.04 in1.0 mm 0.04 in1.0 mm 0.28 in7.1 mm
08:07 AM 65.4°F18.6°C 64.8°F18.2°C 98% 5.8 mph WNW9.3 kmh WNW 13.0 mph20.9 kmh 29.87 in1011.5 mb 0.11 in2.8 mm 0.70 in17.8 mm 0.35 in8.9 mm
08:12 AM 65.4°F18.6°C 64.8°F18.2°C 98% 2.5 mph WSW4.0 kmh WSW 13.0 mph20.9 kmh 29.87 in1011.5 mb 0.19 in4.8 mm 0.96 in24.4 mm 0.43 in10.9 mm
08:17 AM 65.4°F18.6°C 64.8°F18.2°C 98% 1.7 mph WSW2.7 kmh WSW 13.0 mph20.9 kmh 29.87 in1011.5 mb 0.22 in5.6 mm 0.36 in9.1 mm 0.46 in11.7 mm
08:22 AM 65.4°F18.6°C 64.8°F18.2°C 98% 4.2 mph WSW6.8 kmh WSW 13.0 mph20.9 kmh 29.87 in1011.5 mb 0.23 in5.8 mm 0.12 in3.0 mm 0.47 in11.9 mm
08:27 AM 65.4°F18.6°C 64.8°F18.2°C 98% 3.0 mph SW4.8 kmh SW 10.0 mph16.1 kmh 29.87 in1011.5 mb 0.23 in5.8 mm 0.00 in0.0 mm 0.47 in11.9 mm
08:33 AM 65.3°F18.5°C 64.7°F18.2°C 98% 2.8 mph SW4.5 kmh SW 10.0 mph16.1 kmh 29.86 in1011.2 mb 0.25 in6.4 mm 0.20 in5.1 mm 0.49 in12.4 mm
08:38 AM 65.3°F18.5°C 64.7°F18.2°C 98% 2.0 mph SW3.2 kmh SW 9.0 mph14.5 kmh 29.86 in1011.2 mb 0.26 in6.6 mm 0.12 in3.0 mm 0.50 in12.7 mm
08:43 AM 65.3°F18.5°C 64.7°F18.2°C 98% 2.8 mph SW4.5 kmh SW 8.0 mph12.9 kmh 29.85 in1010.8 mb 0.27 in6.9 mm 0.12 in3.0 mm 0.51 in13.0 mm
08:48 AM 65.2°F18.4°C 64.6°F18.1°C 98% 1.0 mph SW1.6 kmh SW 8.0 mph12.9 kmh 29.85 in1010.8 mb 0.28 in7.1 mm 0.12 in3.0 mm 0.52 in13.2 mm
08:53 AM 65.2°F18.4°C 64.6°F18.1°C 98% 2.7 mph SSW4.3 kmh SSW 7.0 mph11.3 kmh 29.86 in1011.2 mb 0.29 in7.4 mm 0.12 in3.0 mm 0.53 in13.5 mm
08:59 AM 65.3°F18.5°C 64.7°F18.2°C 98% 2.6 mph SSW4.2 kmh SSW 7.0 mph11.3 kmh 29.86 in1011.2 mb 0.27 in6.9 mm 0.00 in0.0 mm 0.53 in13.5 mm
09:04 AM 65.3°F18.5°C 64.7°F18.2°C 98% 2.0 mph SSW3.2 kmh SSW 7.0 mph11.3 kmh 29.86 in1011.2 mb 0.22 in5.6 mm 0.00 in0.0 mm 0.54 in13.7 mm
09:08 AM 65.4°F18.6°C 64.8°F18.2°C 98% 2.1 mph S3.4 kmh S 7.0 mph11.3 kmh 29.87 in1011.5 mb 0.16 in4.1 mm 0.00 in0.0 mm 0.54 in13.7 mm
09:13 AM 65.4°F18.6°C 64.8°F18.2°C 98% 2.6 mph SSW4.2 kmh SSW 9.0 mph14.5 kmh 29.89 in1012.2 mb 0.10 in2.5 mm 0.00 in0.0 mm 0.54 in13.7 mm
09:18 AM 65.4°F18.6°C 64.8°F18.2°C 98% 5.0 mph SW8.0 kmh SW 15.0 mph24.1 kmh 29.89 in1012.2 mb 0.08 in2.0 mm 0.00 in0.0 mm 0.54 in13.7 mm
09:24 AM 65.4°F18.6°C 64.8°F18.2°C 98% 2.6 mph S4.2 kmh S 15.0 mph24.1 kmh 29.88 in1011.9 mb 0.09 in2.3 mm 0.10 in2.5 mm 0.56 in14.2 mm
09:29 AM 65.5°F18.6°C 64.9°F18.3°C 98% 2.6 mph S4.2 kmh S 15.0 mph24.1 kmh 29.88 in1011.9 mb 0.09 in2.3 mm 0.00 in0.0 mm 0.57 in14.5 mm
09:34 AM 65.5°F18.6°C 64.9°F18.3°C 98% 2.9 mph SSW4.7 kmh SSW 13.0 mph20.9 kmh 29.87 in1011.5 mb 0.08 in2.0 mm 0.00 in0.0 mm 0.57 in14.5 mm
09:42 AM 65.5°F18.6°C 64.9°F18.3°C 98% Calm Calm 12.0 mph19.3 kmh 29.86 in1011.2 mb 0.07 in1.8 mm 0.00 in0.0 mm 0.58 in14.7 mm
09:47 AM 65.5°F18.6°C 64.9°F18.3°C 98% 1.9 mph S3.1 kmh S 12.0 mph19.3 kmh 29.86 in1011.2 mb 0.07 in1.8 mm 0.00 in0.0 mm 0.59 in15.0 mm
09:52 AM 65.4°F18.6°C 64.8°F18.2°C 98% 2.0 mph SSW3.2 kmh SSW 12.0 mph19.3 kmh 29.85 in1010.8 mb 0.08 in2.0 mm 0.12 in3.0 mm 0.61 in15.5 mm
09:57 AM 65.2°F18.4°C 64.6°F18.1°C 98% 1.5 mph SSW2.4 kmh SSW 12.0 mph19.3 kmh 29.85 in1010.8 mb 0.09 in2.3 mm 0.12 in3.0 mm 0.62 in15.7 mm
10:02 AM 65.0°F18.3°C 64.4°F18.0°C 98% 3.0 mph SSW4.8 kmh SSW 8.0 mph12.9 kmh 29.85 in1010.8 mb 0.08 in2.0 mm 0.00 in0.0 mm 0.62 in15.7 mm
10:07 AM 65.0°F18.3°C 64.4°F18.0°C 98% 3.9 mph WSW6.3 kmh WSW 12.0 mph19.3 kmh 29.85 in1010.8 mb 0.09 in2.3 mm 0.12 in3.0 mm 0.63 in16.0 mm
10:12 AM 65.0°F18.3°C 64.4°F18.0°C 98% 3.1 mph SW5.0 kmh SW 12.0 mph19.3 kmh 29.85 in1010.8 mb 0.09 in2.3 mm 0.00 in0.0 mm 0.63 in16.0 mm
10:17 AM 64.9°F18.3°C 64.3°F17.9°C 98% 2.5 mph SW4.0 kmh SW 12.0 mph19.3 kmh 29.84 in1010.5 mb 0.09 in2.3 mm 0.00 in0.0 mm 0.63 in16.0 mm
10:22 AM 64.9°F18.3°C 64.3°F17.9°C 98% 2.4 mph SW3.9 kmh SW 12.0 mph19.3 kmh 29.85 in1010.8 mb 0.08 in2.0 mm 0.00 in0.0 mm 0.63 in16.0 mm
10:27 AM 64.9°F18.3°C 64.0°F17.8°C 97% 3.2 mph SW5.1 kmh SW 11.0 mph17.7 kmh 29.86 in1011.2 mb 0.06 in1.5 mm 0.00 in0.0 mm 0.63 in16.0 mm
10:32 AM 65.0°F18.3°C 64.1°F17.8°C 97% 2.9 mph SW4.7 kmh SW 12.0 mph19.3 kmh 29.86 in1011.2 mb 0.06 in1.5 mm 0.00 in0.0 mm 0.63 in16.0 mm
10:37 AM 65.0°F18.3°C 63.8°F17.7°C 96% 3.4 mph SW5.5 kmh SW 12.0 mph19.3 kmh 29.87 in1011.5 mb 0.08 in2.0 mm 0.24 in6.1 mm 0.66 in16.8 mm
10:42 AM 64.9°F18.3°C 63.7°F17.6°C 96% 3.1 mph SW5.0 kmh SW 18.0 mph29.0 kmh 29.87 in1011.5 mb 0.13 in3.3 mm 0.60 in15.2 mm 0.71 in18.0 mm
10:47 AM 64.6°F18.1°C 63.4°F17.4°C 96% 1.8 mph WSW2.9 kmh WSW 18.0 mph29.0 kmh 29.87 in1011.5 mb 0.17 in4.3 mm 0.48 in12.2 mm 0.76 in19.3 mm
10:52 AM 64.5°F18.1°C 63.3°F17.4°C 96% 2.7 mph W4.3 kmh W 18.0 mph29.0 kmh 29.86 in1011.2 mb 0.16 in4.1 mm 0.00 in0.0 mm 0.77 in19.6 mm
10:57 AM 64.5°F18.1°C 63.3°F17.4°C 96% 3.0 mph W4.8 kmh W 18.0 mph29.0 kmh 29.86 in1011.2 mb 0.16 in4.1 mm 0.00 in0.0 mm 0.78 in19.8 mm
11:02 AM 64.6°F18.1°C 63.4°F17.4°C 96% 2.7 mph WSW4.3 kmh WSW 12.0 mph19.3 kmh 29.86 in1011.2 mb 0.17 in4.3 mm 0.01 in0.3 mm 0.79 in20.1 mm
11:07 AM 64.5°F18.1°C 63.3°F17.4°C 96% 2.0 mph W3.2 kmh W 8.0 mph12.9 kmh 29.86 in1011.2 mb 0.17 in4.3 mm 0.00 in0.0 mm 0.80 in20.3 mm
11:12 AM 64.5°F18.1°C 63.3°F17.4°C 96% 2.0 mph W3.2 kmh W 8.0 mph12.9 kmh 29.86 in1011.2 mb 0.20 in5.1 mm 0.36 in9.1 mm 0.83 in21.1 mm
11:17 AM 64.5°F18.1°C 63.6°F17.6°C 97% 2.1 mph W3.4 kmh W 8.0 mph12.9 kmh 29.86 in1011.2 mb 0.22 in5.6 mm 0.24 in6.1 mm 0.85 in21.6 mm
11:22 AM 64.4°F18.0°C 63.5°F17.5°C 97% 1.5 mph W2.4 kmh W 5.0 mph8.0 kmh 29.86 in1011.2 mb 0.25 in6.4 mm 0.36 in9.1 mm 0.88 in22.4 mm
11:28 AM 64.5°F18.1°C 63.6°F17.6°C 97% 1.6 mph W2.6 kmh W 5.0 mph8.0 kmh 29.85 in1010.8 mb 0.26 in6.6 mm 0.10 in2.5 mm 0.89 in22.6 mm
11:33 AM 64.4°F18.0°C 63.5°F17.5°C 97% 2.3 mph WNW3.7 kmh WNW 5.0 mph8.0 kmh 29.86 in1011.2 mb 0.27 in6.9 mm 0.12 in3.0 mm 0.90 in22.9 mm
11:38 AM 64.4°F18.0°C 63.5°F17.5°C 97% 2.0 mph WSW3.2 kmh WSW 9.0 mph14.5 kmh 29.89 in1012.2 mb 0.26 in6.6 mm 0.00 in0.0 mm 0.92 in23.4 mm
11:43 AM 64.5°F18.1°C 63.6°F17.6°C 97% 3.6 mph W5.8 kmh W 11.0 mph17.7 kmh 29.90 in1012.5 mb 0.28 in7.1 mm 0.24 in6.1 mm 0.99 in25.1 mm
11:48 AM 64.5°F18.1°C 63.6°F17.6°C 97% 3.4 mph W5.5 kmh W 11.0 mph17.7 kmh 29.89 in1012.2 mb 0.29 in7.4 mm 0.12 in3.0 mm 1.05 in26.7 mm
11:53 AM 64.5°F18.1°C 63.6°F17.6°C 97% 2.6 mph WSW4.2 kmh WSW 11.0 mph17.7 kmh 29.89 in1012.2 mb 0.31 in7.9 mm 0.24 in6.1 mm 1.08 in27.4 mm
11:58 AM 64.5°F18.1°C 63.6°F17.6°C 97% 2.2 mph SW3.5 kmh SW 11.0 mph17.7 kmh 29.90 in1012.5 mb 0.31 in7.9 mm 0.00 in0.0 mm 1.09 in27.7 mm
12:03 PM 64.4°F18.0°C 63.5°F17.5°C 97% 2.1 mph WSW3.4 kmh WSW 10.0 mph16.1 kmh 29.89 in1012.2 mb 0.33 in8.4 mm 0.02 in0.5 mm 1.12 in28.4 mm
12:08 PM 64.5°F18.1°C 63.9°F17.7°C 98% 1.0 mph SW1.6 kmh SW 7.0 mph11.3 kmh 29.89 in1012.2 mb 0.34 in8.6 mm 0.12 in3.0 mm 1.14 in29.0 mm
12:13 PM 64.5°F18.1°C 63.9°F17.7°C 98% 2.6 mph WSW4.2 kmh WSW 6.0 mph9.7 kmh 29.88 in1011.9 mb 0.32 in8.1 mm 0.00 in0.0 mm 1.15 in29.2 mm
12:18 PM 64.5°F18.1°C 63.9°F17.7°C 98% 1.1 mph WSW1.8 kmh WSW 6.0 mph9.7 kmh 29.88 in1011.9 mb 0.31 in7.9 mm 0.00 in0.0 mm 1.16 in29.5 mm
12:23 PM 64.6°F18.1°C 64.0°F17.8°C 98% 2.8 mph WSW4.5 kmh WSW 5.0 mph8.0 kmh 29.87 in1011.5 mb 0.29 in7.4 mm 0.00 in0.0 mm 1.17 in29.7 mm
12:28 PM 64.7°F18.2°C 64.1°F17.8°C 98% 1.0 mph WSW1.6 kmh WSW 5.0 mph8.0 kmh 29.86 in1011.2 mb 0.30 in7.6 mm 0.12 in3.0 mm 1.19 in30.2 mm
12:33 PM 64.9°F18.3°C 64.3°F17.9°C 98% 1.3 mph WSW2.1 kmh WSW 5.0 mph8.0 kmh 29.86 in1011.2 mb 0.29 in7.4 mm 0.00 in0.0 mm 1.19 in30.2 mm
12:38 PM 65.1°F18.4°C 64.5°F18.1°C 98% Calm Calm 5.0 mph8.0 kmh 29.85 in1010.8 mb 0.28 in7.1 mm 0.00 in0.0 mm 1.20 in30.5 mm
12:43 PM 65.2°F18.4°C 64.6°F18.1°C 98% 1.6 mph WSW2.6 kmh WSW 4.0 mph6.4 kmh 29.85 in1010.8 mb 0.21 in5.3 mm 0.00 in0.0 mm 1.20 in30.5 mm
12:48 PM 65.4°F18.6°C 64.8°F18.2°C 98% Calm Calm 4.0 mph6.4 kmh 29.84 in1010.5 mb 0.14 in3.6 mm 0.00 in0.0 mm 1.20 in30.5 mm
12:53 PM 65.5°F18.6°C 64.9°F18.3°C 98% 1.5 mph SW2.4 kmh SW 4.0 mph6.4 kmh 29.84 in1010.5 mb 0.12 in3.0 mm 0.00 in0.0 mm 1.20 in30.5 mm
12:58 PM 65.6°F18.7°C 65.0°F18.3°C 98% 1.8 mph WSW2.9 kmh WSW 4.0 mph6.4 kmh 29.83 in1010.2 mb 0.11 in2.8 mm 0.00 in0.0 mm 1.20 in30.5 mm
01:03 PM 65.9°F18.8°C 65.3°F18.5°C 98% 1.8 mph WSW2.9 kmh WSW 4.0 mph6.4 kmh 29.83 in1010.2 mb 0.08 in2.0 mm 0.00 in0.0 mm 1.20 in30.5 mm
01:08 PM 65.9°F18.8°C 65.0°F18.3°C 97% 2.1 mph W3.4 kmh W 6.0 mph9.7 kmh 29.83 in1010.2 mb 0.06 in1.5 mm 0.00 in0.0 mm 1.20 in30.5 mm
01:13 PM 66.6°F19.2°C 66.0°F18.9°C 98% 2.5 mph SW4.0 kmh SW 6.0 mph9.7 kmh 29.83 in1010.2 mb 0.05 in1.3 mm 0.00 in0.0 mm 1.20 in30.5 mm
01:18 PM 67.1°F19.5°C 66.2°F19.0°C 97% 2.1 mph SW3.4 kmh SW 6.0 mph9.7 kmh 29.83 in1010.2 mb 0.04 in1.0 mm 0.00 in0.0 mm 1.20 in30.5 mm
01:23 PM 67.6°F19.8°C 66.7°F19.3°C 97% 1.1 mph SW1.8 kmh SW 5.0 mph8.0 kmh 29.82 in1009.8 mb 0.03 in0.8 mm 0.00 in0.0 mm 1.20 in30.5 mm
01:28 PM 67.8°F19.9°C 66.6°F19.2°C 96% 2.5 mph SW4.0 kmh SW 5.0 mph8.0 kmh 29.83 in1010.2 mb 0.01 in0.3 mm 0.00 in0.0 mm 1.20 in30.5 mm
01:33 PM 67.7°F19.8°C 66.5°F19.2°C 96% 1.6 mph SW2.6 kmh SW 5.0 mph8.0 kmh 29.83 in1010.2 mb 0.01 in0.3 mm 0.00 in0.0 mm 1.20 in30.5 mm
01:38 PM 68.1°F20.1°C 66.9°F19.4°C 96% 1.8 mph SSW2.9 kmh SSW 5.0 mph8.0 kmh 29.83 in1010.2 mb 0.00 in0.0 mm 0.00 in0.0 mm 1.20 in30.5 mm
01:43 PM 68.3°F20.2°C 67.1°F19.5°C 96% 1.8 mph SW2.9 kmh SW 5.0 mph8.0 kmh 29.83 in1010.2 mb 0.00 in0.0 mm 0.00 in0.0 mm 1.20 in30.5 mm
01:48 PM 68.5°F20.3°C 67.3°F19.6°C 96% 1.9 mph S3.1 kmh S 6.0 mph9.7 kmh 29.83 in1010.2 mb 0.00 in0.0 mm 0.00 in0.0 mm 1.20 in30.5 mm
01:53 PM 68.8°F20.4°C 67.6°F19.8°C 96% 1.8 mph SSE2.9 kmh SSE 6.0 mph9.7 kmh 29.81 in1009.5 mb 0.00 in0.0 mm 0.00 in0.0 mm 1.20 in30.5 mm
01:58 PM 68.7°F20.4°C 67.2°F19.6°C 95% 2.3 mph SW3.7 kmh SW 6.0 mph9.7 kmh 29.81 in1009.5 mb 0.00 in0.0 mm 0.00 in0.0 mm 1.20 in30.5 mm
02:03 PM 68.8°F20.4°C 67.3°F19.6°C 95% Calm Calm 6.0 mph9.7 kmh 29.81 in1009.5 mb 0.00 in0.0 mm 0.00 in0.0 mm 1.20 in30.5 mm
02:08 PM 68.8°F20.4°C 67.3°F19.6°C 95% 3.0 mph WSW4.8 kmh WSW 8.0 mph12.9 kmh 29.82 in1009.8 mb 0.00 in0.0 mm 0.00 in0.0 mm 1.20 in30.5 mm
02:13 PM 68.7°F20.4°C 67.2°F19.6°C 95% 3.7 mph SW6.0 kmh SW 8.0 mph12.9 kmh 29.81 in1009.5 mb 0.00 in0.0 mm 0.00 in0.0 mm 1.20 in30.5 mm
02:18 PM 68.6°F20.3°C 67.1°F19.5°C 95% 1.6 mph SW2.6 kmh SW 8.0 mph12.9 kmh 29.80 in1009.1 mb 0.00 in0.0 mm 0.00 in0.0 mm 1.20 in30.5 mm
02:23 PM 68.8°F20.4°C 67.3°F19.6°C 95% 1.0 mph SW1.6 kmh SW 8.0 mph12.9 kmh 29.80 in1009.1 mb 0.00 in0.0 mm 0.00 in0.0 mm 1.20 in30.5 mm
02:28 PM 68.8°F20.4°C 67.3°F19.6°C 95% Calm Calm 6.0 mph9.7 kmh 29.80 in1009.1 mb 0.00 in0.0 mm 0.00 in0.0 mm 1.20 in30.5 mm
02:33 PM 68.8°F20.4°C 67.3°F19.6°C 95% 1.8 mph SW2.9 kmh SW 4.0 mph6.4 kmh 29.81 in1009.5 mb 0.00 in0.0 mm 0.00 in0.0 mm 1.20 in30.5 mm
02:38 PM 68.8°F20.4°C 67.3°F19.6°C 95% 1.0 mph S1.6 kmh S 3.0 mph4.8 kmh 29.80 in1009.1 mb 0.00 in0.0 mm 0.00 in0.0 mm 1.20 in30.5 mm
02:42 PM 68.9°F20.5°C 67.4°F19.7°C 95% 1.4 mph SW2.3 kmh SW 3.0 mph4.8 kmh 29.80 in1009.1 mb 0.00 in0.0 mm 0.00 in0.0 mm 1.20 in30.5 mm
02:47 PM 69.3°F20.7°C 68.1°F20.1°C 96% 1.5 mph SW2.4 kmh SW 3.0 mph4.8 kmh 29.80 in1009.1 mb 0.00 in0.0 mm 0.00 in0.0 mm 1.20 in30.5 mm
02:52 PM 69.5°F20.8°C 68.0°F20.0°C 95% 1.0 mph SSE1.6 kmh SSE 2.0 mph3.2 kmh 29.80 in1009.1 mb 0.00 in0.0 mm 0.00 in0.0 mm 1.20 in30.5 mm
02:57 PM 70.0°F21.1°C 68.5°F20.3°C 95% 2.6 mph S4.2 kmh S 6.0 mph9.7 kmh 29.80 in1009.1 mb 0.00 in0.0 mm 0.00 in0.0 mm 1.20 in30.5 mm
03:02 PM 70.7°F21.5°C 68.6°F20.3°C 93% 1.7 mph S2.7 kmh S 6.0 mph9.7 kmh 29.80 in1009.1 mb 0.00 in0.0 mm 0.00 in0.0 mm 1.20 in30.5 mm
03:07 PM 70.8°F21.6°C 68.3°F20.2°C 92% 1.3 mph S2.1 kmh S 6.0 mph9.7 kmh 29.80 in1009.1 mb 0.00 in0.0 mm 0.00 in0.0 mm 1.20 in30.5 mm
03:12 PM 70.6°F21.4°C 67.5°F19.7°C 90% 2.4 mph SW3.9 kmh SW 9.0 mph14.5 kmh 29.80 in1009.1 mb 0.00 in0.0 mm 0.00 in0.0 mm 1.20 in30.5 mm
03:17 PM 70.8°F21.6°C 68.0°F20.0°C 91% 2.5 mph SW4.0 kmh SW 9.0 mph14.5 kmh 29.80 in1009.1 mb 0.00 in0.0 mm 0.00 in0.0 mm 1.20 in30.5 mm
03:22 PM 71.3°F21.8°C 68.8°F20.4°C 92% 2.7 mph S4.3 kmh S 9.0 mph14.5 kmh 29.80 in1009.1 mb 0.00 in0.0 mm 0.00 in0.0 mm 1.20 in30.5 mm
03:27 PM 71.9°F22.2°C 69.1°F20.6°C 91% 1.5 mph S2.4 kmh S 9.0 mph14.5 kmh 29.80 in1009.1 mb 0.00 in0.0 mm 0.00 in0.0 mm 1.20 in30.5 mm
03:32 PM 72.1°F22.3°C 68.4°F20.2°C 88% 3.1 mph SSW5.0 kmh SSW 7.0 mph11.3 kmh 29.79 in1008.8 mb 0.00 in0.0 mm 0.00 in0.0 mm 1.20 in30.5 mm
03:37 PM 72.2°F22.3°C 68.8°F20.4°C 89% 2.8 mph SW4.5 kmh SW 7.0 mph11.3 kmh 29.79 in1008.8 mb 0.00 in0.0 mm 0.00 in0.0 mm 1.20 in30.5 mm
03:42 PM 72.3°F22.4°C 68.5°F20.3°C 88% 3.0 mph S4.8 kmh S 11.0 mph17.7 kmh 29.79 in1008.8 mb 0.00 in0.0 mm 0.00 in0.0 mm 1.20 in30.5 mm
03:47 PM 72.4°F22.4°C 68.6°F20.3°C 88% 2.7 mph SW4.3 kmh SW 11.0 mph17.7 kmh 29.79 in1008.8 mb 0.00 in0.0 mm 0.00 in0.0 mm 1.20 in30.5 mm
03:52 PM 72.8°F22.7°C 69.0°F20.6°C 88% 3.7 mph SW6.0 kmh SW 12.0 mph19.3 kmh 29.79 in1008.8 mb 0.00 in0.0 mm 0.00 in0.0 mm 1.20 in30.5 mm
03:57 PM 73.1°F22.8°C 68.7°F20.4°C 86% 3.2 mph SW5.1 kmh SW 12.0 mph19.3 kmh 29.79 in1008.8 mb 0.00 in0.0 mm 0.00 in0.0 mm 1.20 in30.5 mm
04:02 PM 73.1°F22.8°C 69.3°F20.7°C 88% 1.4 mph S2.3 kmh S 12.0 mph19.3 kmh 29.79 in1008.8 mb 0.00 in0.0 mm 0.00 in0.0 mm 1.20 in30.5 mm
04:07 PM 73.3°F22.9°C 69.9°F21.1°C 89% 2.2 mph SE3.5 kmh SE 12.0 mph19.3 kmh 29.78 in1008.5 mb 0.00 in0.0 mm 0.00 in0.0 mm 1.20 in30.5 mm
04:12 PM 73.6°F23.1°C 69.5°F20.8°C 87% 2.5 mph SW4.0 kmh SW 9.0 mph14.5 kmh 29.78 in1008.5 mb 0.00 in0.0 mm 0.00 in0.0 mm 1.20 in30.5 mm
04:17 PM 73.9°F23.3°C 69.8°F21.0°C 87% 1.8 mph S2.9 kmh S 8.0 mph12.9 kmh 29.78 in1008.5 mb 0.00 in0.0 mm 0.00 in0.0 mm 1.20 in30.5 mm
04:22 PM 74.1°F23.4°C 69.3°F20.7°C 85% 4.4 mph SW7.1 kmh SW 9.0 mph14.5 kmh 29.78 in1008.5 mb 0.00 in0.0 mm 0.00 in0.0 mm 1.20 in30.5 mm
04:27 PM 74.6°F23.7°C 70.1°F21.2°C 86% 1.8 mph S2.9 kmh S 9.0 mph14.5 kmh 29.78 in1008.5 mb 0.00 in0.0 mm 0.00 in0.0 mm 1.20 in30.5 mm
04:32 PM 74.7°F23.7°C 69.6°F20.9°C 84% 2.8 mph SSW4.5 kmh SSW 9.0 mph14.5 kmh 29.78 in1008.5 mb 0.00 in0.0 mm 0.00 in0.0 mm 1.20 in30.5 mm
04:37 PM 74.3°F23.5°C 69.2°F20.7°C 84% 2.2 mph S3.5 kmh S 9.0 mph14.5 kmh 29.78 in1008.5 mb 0.00 in0.0 mm 0.00 in0.0 mm 1.20 in30.5 mm
04:42 PM 73.7°F23.2°C 68.6°F20.3°C 84% 2.8 mph SSW4.5 kmh SSW 9.0 mph14.5 kmh 29.78 in1008.5 mb 0.00 in0.0 mm 0.00 in0.0 mm 1.20 in30.5 mm
04:47 PM 73.2°F22.9°C 68.5°F20.3°C 85% 1.9 mph S3.1 kmh S 9.0 mph14.5 kmh 29.77 in1008.1 mb 0.00 in0.0 mm 0.00 in0.0 mm 1.20 in30.5 mm
04:52 PM 73.1°F22.8°C 68.4°F20.2°C 85% 3.2 mph SW5.1 kmh SW 9.0 mph14.5 kmh 29.77 in1008.1 mb 0.00 in0.0 mm 0.00 in0.0 mm 1.20 in30.5 mm
04:57 PM 72.9°F22.7°C 68.5°F20.3°C 86% 2.3 mph SSW3.7 kmh SSW 9.0 mph14.5 kmh 29.77 in1008.1 mb 0.00 in0.0 mm 0.00 in0.0 mm 1.20 in30.5 mm
05:02 PM 72.9°F22.7°C 68.5°F20.3°C 86% 2.3 mph SW3.7 kmh SW 9.0 mph14.5 kmh 29.77 in1008.1 mb 0.00 in0.0 mm 0.00 in0.0 mm 1.20 in30.5 mm
05:07 PM 72.9°F22.7°C 68.8°F20.4°C 87% 2.1 mph SW3.4 kmh SW 9.0 mph14.5 kmh 29.76 in1007.8 mb 0.00 in0.0 mm 0.00 in0.0 mm 1.20 in30.5 mm
05:12 PM 73.1°F22.8°C 68.7°F20.4°C 86% 1.9 mph SW3.1 kmh SW 9.0 mph14.5 kmh 29.76 in1007.8 mb 0.00 in0.0 mm 0.00 in0.0 mm 1.20 in30.5 mm
05:17 PM 73.1°F22.8°C 69.0°F20.6°C 87% 2.4 mph WSW3.9 kmh WSW 9.0 mph14.5 kmh 29.76 in1007.8 mb 0.00 in0.0 mm 0.00 in0.0 mm 1.20 in30.5 mm
05:22 PM 73.2°F22.9°C 69.1°F20.6°C 87% 1.6 mph SW2.6 kmh SW 9.0 mph14.5 kmh 29.75 in1007.5 mb 0.00 in0.0 mm 0.00 in0.0 mm 1.20 in30.5 mm
05:27 PM 73.3°F22.9°C 69.2°F20.7°C 87% 2.2 mph SW3.5 kmh SW 9.0 mph14.5 kmh 29.75 in1007.5 mb 0.00 in0.0 mm 0.00 in0.0 mm 1.20 in30.5 mm
05:32 PM 73.7°F23.2°C 69.2°F20.7°C 86% 2.8 mph SW4.5 kmh SW 9.0 mph14.5 kmh 29.75 in1007.5 mb 0.00 in0.0 mm 0.00 in0.0 mm 1.20 in30.5 mm
05:37 PM 74.0°F23.3°C 69.5°F20.8°C 86% 1.6 mph SW2.6 kmh SW 7.0 mph11.3 kmh 29.75 in1007.5 mb 0.00 in0.0 mm 0.00 in0.0 mm 1.20 in30.5 mm
05:42 PM 74.5°F23.6°C 70.0°F21.1°C 86% 2.3 mph SSW3.7 kmh SSW 7.0 mph11.3 kmh 29.74 in1007.1 mb 0.00 in0.0 mm 0.00 in0.0 mm 1.20 in30.5 mm
05:47 PM 74.4°F23.6°C 69.6°F20.9°C 85% 4.6 mph SW7.4 kmh SW 11.0 mph17.7 kmh 29.74 in1007.1 mb 0.00 in0.0 mm 0.00 in0.0 mm 1.20 in30.5 mm
05:52 PM 74.3°F23.5°C 69.5°F20.8°C 85% 2.2 mph SW3.5 kmh SW 11.0 mph17.7 kmh 29.74 in1007.1 mb 0.00 in0.0 mm 0.00 in0.0 mm 1.20 in30.5 mm
05:57 PM 74.4°F23.6°C 69.6°F20.9°C 85% 4.1 mph SW6.6 kmh SW 11.0 mph17.7 kmh 29.74 in1007.1 mb 0.00 in0.0 mm 0.00 in0.0 mm 1.20 in30.5 mm
06:02 PM 74.4°F23.6°C 69.0°F20.6°C 83% 4.3 mph SW6.9 kmh SW 11.0 mph17.7 kmh 29.74 in1007.1 mb 0.00 in0.0 mm 0.00 in0.0 mm 1.20 in30.5 mm
06:07 PM 74.6°F23.7°C 69.2°F20.7°C 83% 3.4 mph SW5.5 kmh SW 15.0 mph24.1 kmh 29.74 in1007.1 mb 0.00 in0.0 mm 0.00 in0.0 mm 1.20 in30.5 mm
06:12 PM 74.6°F23.7°C 68.4°F20.2°C 81% 3.1 mph SW5.0 kmh SW 15.0 mph24.1 kmh 29.74 in1007.1 mb 0.00 in0.0 mm 0.00 in0.0 mm 1.20 in30.5 mm
06:17 PM 74.7°F23.7°C 68.2°F20.1°C 80% 5.4 mph WSW8.7 kmh WSW 15.0 mph24.1 kmh 29.74 in1007.1 mb 0.00 in0.0 mm 0.00 in0.0 mm 1.20 in30.5 mm
06:22 PM 74.9°F23.8°C 68.1°F20.1°C 79% 2.3 mph SW3.7 kmh SW 15.0 mph24.1 kmh 29.74 in1007.1 mb 0.00 in0.0 mm 0.00 in0.0 mm 1.20 in30.5 mm
06:27 PM 74.5°F23.6°C 67.7°F19.8°C 79% 5.2 mph SW8.4 kmh SW 15.0 mph24.1 kmh 29.74 in1007.1 mb 0.00 in0.0 mm 0.00 in0.0 mm 1.20 in30.5 mm
06:32 PM 74.3°F23.5°C 67.1°F19.5°C 78% 4.3 mph SW6.9 kmh SW 17.0 mph27.4 kmh 29.74 in1007.1 mb 0.00 in0.0 mm 0.00 in0.0 mm 1.20 in30.5 mm
06:37 PM 74.1°F23.4°C 66.9°F19.4°C 78% 4.5 mph SW7.2 kmh SW 17.0 mph27.4 kmh 29.74 in1007.1 mb 0.00 in0.0 mm 0.00 in0.0 mm 1.20 in30.5 mm
06:42 PM 74.2°F23.4°C 67.3°F19.6°C 79% 2.6 mph SSW4.2 kmh SSW 17.0 mph27.4 kmh 29.74 in1007.1 mb 0.00 in0.0 mm 0.00 in0.0 mm 1.20 in30.5 mm
06:47 PM 74.0°F23.3°C 67.5°F19.7°C 80% 3.2 mph WSW5.1 kmh WSW 14.0 mph22.5 kmh 29.74 in1007.1 mb 0.00 in0.0 mm 0.00 in0.0 mm 1.20 in30.5 mm
06:52 PM 73.9°F23.3°C 67.8°F19.9°C 81% 2.6 mph SW4.2 kmh SW 11.0 mph17.7 kmh 29.74 in1007.1 mb 0.00 in0.0 mm 0.00 in0.0 mm 1.20 in30.5 mm
06:57 PM 73.8°F23.2°C 67.7°F19.8°C 81% 1.9 mph SW3.1 kmh SW 11.0 mph17.7 kmh 29.74 in1007.1 mb 0.00 in0.0 mm 0.00 in0.0 mm 1.20 in30.5 mm
07:02 PM 73.9°F23.3°C 68.1°F20.1°C 82% 2.4 mph S3.9 kmh S 11.0 mph17.7 kmh 29.74 in1007.1 mb 0.00 in0.0 mm 0.00 in0.0 mm 1.20 in30.5 mm
07:07 PM 73.7°F23.2°C 67.9°F19.9°C 82% 2.7 mph WSW4.3 kmh WSW 9.0 mph14.5 kmh 29.74 in1007.1 mb 0.00 in0.0 mm 0.00 in0.0 mm 1.20 in30.5 mm
07:12 PM 73.6°F23.1°C 68.1°F20.1°C 83% 2.7 mph SW4.3 kmh SW 9.0 mph14.5 kmh 29.74 in1007.1 mb 0.00 in0.0 mm 0.00 in0.0 mm 1.20 in30.5 mm
07:17 PM 73.7°F23.2°C 67.9°F19.9°C 82% 2.7 mph SSW4.3 kmh SSW 9.0 mph14.5 kmh 29.74 in1007.1 mb 0.00 in0.0 mm 0.00 in0.0 mm 1.20 in30.5 mm
07:22 PM 73.7°F23.2°C 68.3°F20.2°C 83% 2.1 mph SSW3.4 kmh SSW 9.0 mph14.5 kmh 29.74 in1007.1 mb 0.00 in0.0 mm 0.00 in0.0 mm 1.20 in30.5 mm
07:27 PM 73.8°F23.2°C 68.4°F20.2°C 83% 1.7 mph SW2.7 kmh SW 8.0 mph12.9 kmh 29.74 in1007.1 mb 0.00 in0.0 mm 0.00 in0.0 mm 1.20 in30.5 mm
07:32 PM 73.9°F23.3°C 68.5°F20.3°C 83% 1.7 mph SW2.7 kmh SW 8.0 mph12.9 kmh 29.74 in1007.1 mb 0.00 in0.0 mm 0.00 in0.0 mm 1.20 in30.5 mm
07:37 PM 74.2°F23.4°C 68.8°F20.4°C 83% 2.0 mph WSW3.2 kmh WSW 7.0 mph11.3 kmh 29.74 in1007.1 mb 0.00 in0.0 mm 0.00 in0.0 mm 1.20 in30.5 mm
07:41 PM 74.4°F23.6°C 68.6°F20.3°C 82% 1.7 mph SW2.7 kmh SW 8.0 mph12.9 kmh 29.74 in1007.1 mb 0.00 in0.0 mm 0.00 in0.0 mm 1.20 in30.5 mm
07:46 PM 74.2°F23.4°C 68.4°F20.2°C 82% 3.5 mph SW5.6 kmh SW 11.0 mph17.7 kmh 29.74 in1007.1 mb 0.00 in0.0 mm 0.00 in0.0 mm 1.20 in30.5 mm
07:51 PM 73.7°F23.2°C 68.3°F20.2°C 83% 2.4 mph SW3.9 kmh SW 11.0 mph17.7 kmh 29.74 in1007.1 mb 0.00 in0.0 mm 0.00 in0.0 mm 1.20 in30.5 mm
07:56 PM 73.5°F23.1°C 68.1°F20.1°C 83% 1.4 mph SW2.3 kmh SW 11.0 mph17.7 kmh 29.74 in1007.1 mb 0.00 in0.0 mm 0.00 in0.0 mm 1.20 in30.5 mm
08:01 PM 73.3°F22.9°C 68.2°F20.1°C 84% 3.0 mph WSW4.8 kmh WSW 11.0 mph17.7 kmh 29.74 in1007.1 mb 0.00 in0.0 mm 0.00 in0.0 mm 1.20 in30.5 mm
08:06 PM 73.0°F22.8°C 67.9°F19.9°C 84% 3.8 mph WSW6.1 kmh WSW 9.0 mph14.5 kmh 29.74 in1007.1 mb 0.00 in0.0 mm 0.00 in0.0 mm 1.20 in30.5 mm
08:11 PM 72.7°F22.6°C 67.9°F19.9°C 85% 1.2 mph WSW1.9 kmh WSW 9.0 mph14.5 kmh 29.74 in1007.1 mb 0.00 in0.0 mm 0.00 in0.0 mm 1.20 in30.5 mm
08:16 PM 72.5°F22.5°C 67.8°F19.9°C 85% 1.8 mph SW2.9 kmh SW 9.0 mph14.5 kmh 29.75 in1007.5 mb 0.00 in0.0 mm 0.00 in0.0 mm 1.20 in30.5 mm
08:21 PM 72.3°F22.4°C 67.9°F19.9°C 86% 2.2 mph WSW3.5 kmh WSW 9.0 mph14.5 kmh 29.75 in1007.5 mb 0.00 in0.0 mm 0.00 in0.0 mm 1.20 in30.5 mm
08:26 PM 72.2°F22.3°C 67.8°F19.9°C 86% 2.0 mph SW3.2 kmh SW 9.0 mph14.5 kmh 29.75 in1007.5 mb 0.00 in0.0 mm 0.00 in0.0 mm 1.20 in30.5 mm
08:31 PM 72.0°F22.2°C 67.9°F19.9°C 87% 1.3 mph SW2.1 kmh SW 9.0 mph14.5 kmh 29.75 in1007.5 mb 0.00 in0.0 mm 0.00 in0.0 mm 1.20 in30.5 mm
08:36 PM 71.7°F22.1°C 67.6°F19.8°C 87% 1.7 mph SW2.7 kmh SW 9.0 mph14.5 kmh 29.75 in1007.5 mb 0.00 in0.0 mm 0.00 in0.0 mm 1.20 in30.5 mm
08:41 PM 71.4°F21.9°C 67.7°F19.8°C 88% 1.0 mph SW1.6 kmh SW 5.0 mph8.0 kmh 29.75 in1007.5 mb 0.00 in0.0 mm 0.00 in0.0 mm 1.20 in30.5 mm
08:46 PM 71.1°F21.7°C 67.4°F19.7°C 88% 2.0 mph SW3.2 kmh SW 5.0 mph8.0 kmh 29.75 in1007.5 mb 0.00 in0.0 mm 0.00 in0.0 mm 1.20 in30.5 mm
08:51 PM 70.8°F21.6°C 67.4°F19.7°C 89% 1.4 mph SW2.3 kmh SW 4.0 mph6.4 kmh 29.75 in1007.5 mb 0.00 in0.0 mm 0.00 in0.0 mm 1.20 in30.5 mm
08:56 PM 70.5°F21.4°C 67.4°F19.7°C 90% 1.4 mph SW2.3 kmh SW 4.0 mph6.4 kmh 29.75 in1007.5 mb 0.00 in0.0 mm 0.00 in0.0 mm 1.20 in30.5 mm
09:01 PM 70.3°F21.3°C 67.2°F19.6°C 90% 1.6 mph SW2.6 kmh SW 4.0 mph6.4 kmh 29.76 in1007.8 mb 0.00 in0.0 mm 0.00 in0.0 mm 1.20 in30.5 mm
09:06 PM 70.0°F21.1°C 66.9°F19.4°C 90% Calm Calm 4.0 mph6.4 kmh 29.76 in1007.8 mb 0.00 in0.0 mm 0.00 in0.0 mm 1.20 in30.5 mm
09:11 PM 69.7°F20.9°C 66.9°F19.4°C 91% 1.0 mph WSW1.6 kmh WSW 4.0 mph6.4 kmh 29.76 in1007.8 mb 0.00 in0.0 mm 0.00 in0.0 mm 1.20 in30.5 mm
09:16 PM 69.5°F20.8°C 67.0°F19.4°C 92% 1.0 mph SW1.6 kmh SW 4.0 mph6.4 kmh 29.76 in1007.8 mb 0.00 in0.0 mm 0.00 in0.0 mm 1.20 in30.5 mm
09:21 PM 69.3°F20.7°C 66.9°F19.4°C 92% 1.5 mph SW2.4 kmh SW 2.0 mph3.2 kmh 29.76 in1007.8 mb 0.00 in0.0 mm 0.00 in0.0 mm 1.20 in30.5 mm
09:26 PM 69.2°F20.7°C 66.8°F19.3°C 92% 1.6 mph SW2.6 kmh SW 3.0 mph4.8 kmh 29.77 in1008.1 mb 0.00 in0.0 mm 0.00 in0.0 mm 1.20 in30.5 mm
09:31 PM 69.1°F20.6°C 67.0°F19.4°C 93% 1.8 mph SW2.9 kmh SW 4.0 mph6.4 kmh 29.77 in1008.1 mb 0.00 in0.0 mm 0.00 in0.0 mm 1.20 in30.5 mm
09:36 PM 69.0°F20.6°C 66.9°F19.4°C 93% 1.6 mph WSW2.6 kmh WSW 4.0 mph6.4 kmh 29.77 in1008.1 mb 0.00 in0.0 mm 0.00 in0.0 mm 1.20 in30.5 mm
09:41 PM 68.9°F20.5°C 66.8°F19.3°C 93% 1.3 mph SW2.1 kmh SW 4.0 mph6.4 kmh 29.77 in1008.1 mb 0.00 in0.0 mm 0.00 in0.0 mm 1.20 in30.5 mm
09:46 PM 68.8°F20.4°C 66.7°F19.3°C 93% 1.0 mph SW1.6 kmh SW 4.0 mph6.4 kmh 29.77 in1008.1 mb 0.00 in0.0 mm 0.00 in0.0 mm 1.20 in30.5 mm
09:51 PM 68.7°F20.4°C 66.9°F19.4°C 94% 1.3 mph SW2.1 kmh SW 4.0 mph6.4 kmh 29.77 in1008.1 mb 0.00 in0.0 mm 0.00 in0.0 mm 1.20 in30.5 mm
09:56 PM 68.6°F20.3°C 66.8°F19.3°C 94% 1.2 mph SW1.9 kmh SW 4.0 mph6.4 kmh 29.77 in1008.1 mb 0.00 in0.0 mm 0.00 in0.0 mm 1.20 in30.5 mm
10:01 PM 68.5°F20.3°C 66.7°F19.3°C 94% 1.1 mph WSW1.8 kmh WSW 3.0 mph4.8 kmh 29.78 in1008.5 mb 0.00 in0.0 mm 0.00 in0.0 mm 1.20 in30.5 mm
10:06 PM 68.4°F20.2°C 66.6°F19.2°C 94% Calm Calm 3.0 mph4.8 kmh 29.77 in1008.1 mb 0.00 in0.0 mm 0.00 in0.0 mm 1.20 in30.5 mm
10:11 PM 68.3°F20.2°C 66.5°F19.2°C 94% 1.0 mph SW1.6 kmh SW 2.0 mph3.2 kmh 29.77 in1008.1 mb 0.00 in0.0 mm 0.00 in0.0 mm 1.20 in30.5 mm
10:16 PM 68.2°F20.1°C 66.7°F19.3°C 95% 1.2 mph SW1.9 kmh SW 2.0 mph3.2 kmh 29.78 in1008.5 mb 0.00 in0.0 mm 0.00 in0.0 mm 1.20 in30.5 mm
10:21 PM 68.0°F20.0°C 66.5°F19.2°C 95% 2.0 mph SW3.2 kmh SW 2.0 mph3.2 kmh 29.78 in1008.5 mb 0.00 in0.0 mm 0.00 in0.0 mm 1.20 in30.5 mm
10:26 PM 67.9°F19.9°C 66.4°F19.1°C 95% 1.5 mph SW2.4 kmh SW 3.0 mph4.8 kmh 29.78 in1008.5 mb 0.00 in0.0 mm 0.00 in0.0 mm 1.20 in30.5 mm
10:31 PM 67.9°F19.9°C 66.4°F19.1°C 95% 2.2 mph SW3.5 kmh SW 6.0 mph9.7 kmh 29.78 in1008.5 mb 0.00 in0.0 mm 0.00 in0.0 mm 1.20 in30.5 mm
10:36 PM 67.8°F19.9°C 66.6°F19.2°C 96% 2.2 mph SW3.5 kmh SW 6.0 mph9.7 kmh 29.78 in1008.5 mb 0.00 in0.0 mm 0.00 in0.0 mm 1.20 in30.5 mm
10:41 PM 67.8°F19.9°C 66.6°F19.2°C 96% 1.2 mph SW1.9 kmh SW 6.0 mph9.7 kmh 29.79 in1008.8 mb 0.00 in0.0 mm 0.00 in0.0 mm 1.20 in30.5 mm
10:46 PM 67.8°F19.9°C 66.6°F19.2°C 96% 1.8 mph SW2.9 kmh SW 6.0 mph9.7 kmh 29.79 in1008.8 mb 0.00 in0.0 mm 0.00 in0.0 mm 1.20 in30.5 mm
10:51 PM 67.7°F19.8°C 66.5°F19.2°C 96% 1.7 mph SW2.7 kmh SW 5.0 mph8.0 kmh 29.79 in1008.8 mb 0.00 in0.0 mm 0.00 in0.0 mm 1.20 in30.5 mm
10:56 PM 67.7°F19.8°C 66.5°F19.2°C 96% 2.1 mph SW3.4 kmh SW 5.0 mph8.0 kmh 29.79 in1008.8 mb 0.00 in0.0 mm 0.00 in0.0 mm 1.20 in30.5 mm
11:01 PM 67.7°F19.8°C 66.5°F19.2°C 96% 1.9 mph SW3.1 kmh SW 5.0 mph8.0 kmh 29.79 in1008.8 mb 0.00 in0.0 mm 0.00 in0.0 mm 1.20 in30.5 mm
11:06 PM 67.6°F19.8°C 66.4°F19.1°C 96% 1.8 mph SW2.9 kmh SW 4.0 mph6.4 kmh 29.79 in1008.8 mb 0.00 in0.0 mm 0.00 in0.0 mm 1.20 in30.5 mm
11:11 PM 67.6°F19.8°C 66.4°F19.1°C 96% 1.4 mph SW2.3 kmh SW 4.0 mph6.4 kmh 29.79 in1008.8 mb 0.00 in0.0 mm 0.00 in0.0 mm 1.20 in30.5 mm
11:16 PM 67.6°F19.8°C 66.4°F19.1°C 96% 2.2 mph SW3.5 kmh SW 5.0 mph8.0 kmh 29.80 in1009.1 mb 0.00 in0.0 mm 0.00 in0.0 mm 1.20 in30.5 mm
11:21 PM 67.5°F19.7°C 66.3°F19.1°C 96% 2.5 mph SW4.0 kmh SW 5.0 mph8.0 kmh 29.80 in1009.1 mb 0.00 in0.0 mm 0.00 in0.0 mm 1.20 in30.5 mm
11:26 PM 67.5°F19.7°C 66.3°F19.1°C 96% 1.0 mph SW1.6 kmh SW 5.0 mph8.0 kmh 29.80 in1009.1 mb 0.00 in0.0 mm 0.00 in0.0 mm 1.20 in30.5 mm
11:31 PM 67.4°F19.7°C 66.2°F19.0°C 96% 1.0 mph SW1.6 kmh SW 5.0 mph8.0 kmh 29.80 in1009.1 mb 0.00 in0.0 mm 0.00 in0.0 mm 1.20 in30.5 mm
11:36 PM 67.3°F19.6°C 66.1°F18.9°C 96% 2.6 mph SW4.2 kmh SW 5.0 mph8.0 kmh 29.79 in1008.8 mb 0.00 in0.0 mm 0.00 in0.0 mm 1.20 in30.5 mm
11:41 PM 67.4°F19.7°C 66.2°F19.0°C 96% 1.9 mph SW3.1 kmh SW 5.0 mph8.0 kmh 29.80 in1009.1 mb 0.00 in0.0 mm 0.00 in0.0 mm 1.20 in30.5 mm
11:46 PM 67.3°F19.6°C 66.1°F18.9°C 96% 1.9 mph SW3.1 kmh SW 5.0 mph8.0 kmh 29.80 in1009.1 mb 0.00 in0.0 mm 0.00 in0.0 mm 1.20 in30.5 mm
11:51 PM 67.3°F19.6°C 66.1°F18.9°C 96% 1.1 mph WSW1.8 kmh WSW 5.0 mph8.0 kmh 29.80 in1009.1 mb 0.00 in0.0 mm 0.00 in0.0 mm 1.20 in30.5 mm
11:56 PM 67.2°F19.6°C 66.0°F18.9°C 96% 1.9 mph SW3.1 kmh SW 4.0 mph6.4 kmh 29.79 in1008.8 mb 0.00 in0.0 mm 0.00 in0.0 mm 1.20 in30.5 mm